Time;durP1;ratioP1;P1;durP2;ratioP2;P2;SDS_P1;SDS_P2;PMS_P1;PMS_P2;Temp;Humidity;BMP_temperature;BMP_pressure;BME280_temperature;BME280_humidity;BME280_pressure;Samples;Min_cycle;Max_cycle;Signal;HPM_P1;HPM_P2
2021/01/30 00:02:20;;;;;;;;;;;;;;;3.71;100.00;97303.34;4973512;28;19933;-77
2021/01/30 00:04:47;;;;;;;;;;;;;;;3.59;100.00;97305.47;4973293;28;19952;-78
2021/01/30 00:07:13;;;;;;;;;;;;;;;3.55;100.00;97332.72;4956498;28;19989;-78
2021/01/30 00:09:38;;;;;;;;;;;;;;;3.46;100.00;97325.34;4954476;28;20544;-77
2021/01/30 00:12:03;;;;;;;;;;;;;;;3.27;100.00;97323.38;4956128;28;19929;-78
2021/01/30 00:14:33;;;;;;;;;;;;;;;3.12;100.00;97359.41;4955629;28;20277;-76
2021/01/30 00:16:59;;;;;;;;;;;;;;;3.05;100.00;97358.75;4956503;28;19949;-76
2021/01/30 00:19:25;;;;;;;;;;;;;;;2.88;100.00;97355.88;4956103;28;19922;-77
2021/01/30 00:21:54;;;;;;;;;;;;;;;2.70;100.00;97403.78;4955711;28;19929;-76
2021/01/30 00:24:20;;;;;;;;;;;;;;;2.77;100.00;97356.16;4955262;28;20881;-77
2021/01/30 00:26:49;;;;;;;;;;;;;;;2.67;100.00;97367.47;4956064;28;19922;-76
2021/01/30 00:29:15;;;;;;;;;;;;;;;2.51;100.00;97378.03;4955626;28;20900;-77
2021/01/30 00:31:40;;;;;;;;;;;;;;;2.48;100.00;97383.16;4955982;28;19922;-77
2021/01/30 00:34:05;;;;;;;;;;;;;;;2.34;100.00;97403.00;4956737;28;20033;-78
2021/01/30 00:36:31;;;;;;;;;;;;;;;2.12;100.00;97399.31;4973467;28;19929;-76
2021/01/30 00:38:56;;;;;;;;;;;;;;;2.07;100.00;97407.88;4972976;28;20005;-78
2021/01/30 00:41:21;;;;;;;;;;;;;;;1.99;100.00;97398.78;4955230;28;19925;-78
2021/01/30 00:43:47;;;;;;;;;;;;;;;1.91;100.00;97414.19;4972961;28;20020;-76
2021/01/30 00:46:12;;;;;;;;;;;;;;;1.69;100.00;97429.06;4973119;28;19918;-76
2021/01/30 00:48:37;;;;;;;;;;;;;;;1.63;100.00;97427.50;4973158;28;19918;-76
2021/01/30 00:51:03;;;;;;;;;;;;;;;1.53;100.00;97437.84;4955535;28;19925;-77
2021/01/30 00:53:28;;;;;;;;;;;;;;;1.51;100.00;97422.69;4972308;28;19918;-77
2021/01/30 00:55:53;;;;;;;;;;;;;;;1.38;100.00;97436.50;4972793;28;19956;-76
2021/01/30 00:58:19;;;;;;;;;;;;;;;1.39;100.00;97435.63;4954307;28;20385;-78
2021/01/30 01:00:44;;;;;;;;;;;;;;;1.31;100.00;97445.09;4937288;28;19980;-80
2021/01/30 01:03:11;;;;;;;;;;;;;;;1.36;100.00;97441.59;4957402;28;19925;-80
2021/01/30 01:05:36;;;;;;;;;;;;;;;1.29;100.00;97457.78;4955770;28;19955;-79
2021/01/30 01:08:01;;;;;;;;;;;;;;;1.26;100.00;97437.56;4974910;28;19914;-79
2021/01/30 01:10:27;;;;;;;;;;;;;;;1.25;100.00;97454.50;4970815;28;19922;-79
2021/01/30 01:12:52;;;;;;;;;;;;;;;1.13;100.00;97452.19;4941551;28;19928;-79
2021/01/30 01:15:19;;;;;;;;;;;;;;;1.16;100.00;97459.72;4973950;28;19926;-79
2021/01/30 01:17:44;;;;;;;;;;;;;;;1.02;100.00;97464.22;4973210;28;20297;-79
2021/01/30 01:20:11;;;;;;;;;;;;;;;1.07;100.00;97459.91;4956558;28;19922;-79
2021/01/30 01:22:36;;;;;;;;;;;;;;;1.11;100.00;97458.16;4987375;28;19922;-78
2021/01/30 01:25:02;;;;;;;;;;;;;;;1.08;100.00;97459.06;4972986;28;20373;-78
2021/01/30 01:27:27;;;;;;;;;;;;;;;1.10;100.00;97461.56;4972841;28;19925;-78
2021/01/30 01:29:53;;;;;;;;;;;;;;;1.04;100.00;97465.88;4954508;28;19922;-78
2021/01/30 01:32:18;;;;;;;;;;;;;;;1.05;100.00;97459.13;4956282;28;19973;-78
2021/01/30 01:34:44;;;;;;;;;;;;;;;1.00;100.00;97456.66;4954940;28;19914;-78
2021/01/30 01:37:09;;;;;;;;;;;;;;;0.93;100.00;97451.72;4972591;28;19972;-79
2021/01/30 01:39:34;;;;;;;;;;;;;;;0.81;100.00;97468.81;4973680;28;19918;-77
2021/01/30 01:42:06;;;;;;;;;;;;;;;0.75;100.00;97470.63;4955459;28;19918;-78
2021/01/30 01:44:31;;;;;;;;;;;;;;;0.78;100.00;97481.56;4940396;28;19961;-78
2021/01/30 01:46:56;;;;;;;;;;;;;;;0.53;100.00;97496.34;4956167;28;19929;-78
2021/01/30 01:49:24;;;;;;;;;;;;;;;0.57;100.00;97476.84;4973108;28;20362;-78
2021/01/30 01:51:59;;;;;;;;;;;;;;;0.52;100.00;97484.50;4955777;28;19922;-78
2021/01/30 01:54:25;;;;;;;;;;;;;;;0.51;100.00;97482.84;4955514;28;20054;-78
2021/01/30 01:56:51;;;;;;;;;;;;;;;0.47;100.00;97488.00;4972840;28;19921;-77
2021/01/30 01:59:16;;;;;;;;;;;;;;;0.32;100.00;97497.50;4972425;28;19985;-78
2021/01/30 02:01:41;;;;;;;;;;;;;;;0.31;100.00;97498.34;4972618;28;20417;-78
2021/01/30 02:04:08;;;;;;;;;;;;;;;0.27;100.00;97509.38;4938188;28;19950;-78
2021/01/30 02:06:34;;;;;;;;;;;;;;;0.47;100.00;97503.19;4954531;28;20106;-78
2021/01/30 02:09:00;;;;;;;;;;;;;;;0.20;100.00;97502.75;4955110;28;19932;-78
2021/01/30 02:11:25;;;;;;;;;;;;;;;0.35;100.00;97507.59;4955993;28;19993;-78
2021/01/30 02:13:51;;;;;;;;;;;;;;;0.36;100.00;97519.38;4972853;28;19918;-78
2021/01/30 02:16:29;;;;;;;;;;;;;;;0.49;100.00;97509.06;4955795;28;19925;-77
2021/01/30 02:19:13;;;;;;;;;;;;;;;0.51;100.00;97518.31;4972307;28;19933;-78
2021/01/30 02:21:55;;;;;;;;;;;;;;;0.38;100.00;97525.25;4972773;28;19921;-78
2021/01/30 02:24:28;;;;;;;;;;;;;;;0.22;100.00;97525.50;4972572;28;19989;-78
2021/01/30 02:26:54;;;;;;;;;;;;;;;0.26;100.00;97527.97;4954793;28;19973;-78
2021/01/30 02:29:38;;;;;;;;;;;;;;;0.22;100.00;97535.63;4956240;28;19921;-78
2021/01/30 02:32:18;;;;;;;;;;;;;;;0.25;100.00;97536.44;4972020;28;19933;-78
2021/01/30 02:35:04;;;;;;;;;;;;;;;-0.04;100.00;97539.38;4955215;28;19914;-79
2021/01/30 02:37:32;;;;;;;;;;;;;;;-0.18;100.00;97542.09;4954921;28;19925;-78
2021/01/30 02:40:08;;;;;;;;;;;;;;;-0.27;100.00;97537.13;4954773;28;19980;-78
2021/01/30 02:42:41;;;;;;;;;;;;;;;-0.12;100.00;97546.22;4969680;28;20293;-79
2021/01/30 02:45:08;;;;;;;;;;;;;;;-0.06;100.00;97541.91;4955239;28;19914;-79
2021/01/30 02:47:35;;;;;;;;;;;;;;;-0.24;100.00;97549.75;4971077;28;19918;-79
2021/01/30 02:50:06;;;;;;;;;;;;;;;-0.28;100.00;97564.09;4954466;28;20340;-77
2021/01/30 02:52:31;;;;;;;;;;;;;;;-0.28;100.00;97565.81;4951582;28;19919;-77
2021/01/30 02:54:57;;;;;;;;;;;;;;;-0.30;100.00;97572.56;4941832;28;20029;-78
2021/01/30 02:57:24;;;;;;;;;;;;;;;-0.38;100.00;97565.09;4942147;28;19922;-78
2021/01/30 02:59:50;;;;;;;;;;;;;;;-0.57;100.00;97569.53;4957919;28;19922;-78
2021/01/30 03:02:17;;;;;;;;;;;;;;;-0.41;100.00;97557.53;4942416;28;19918;-77
2021/01/30 03:04:42;;;;;;;;;;;;;;;-0.35;100.00;97569.25;4957531;28;20416;-78
2021/01/30 03:07:20;;;;;;;;;;;;;;;-0.31;100.00;97566.69;4958094;28;19926;-78
2021/01/30 03:09:52;;;;;;;;;;;;;;;-0.63;100.00;97579.69;4942511;28;19911;-78
2021/01/30 03:12:24;;;;;;;;;;;;;;;-0.98;100.00;97587.59;4957897;28;19918;-78
2021/01/30 03:14:54;;;;;;;;;;;;;;;-0.70;100.00;97575.56;4926640;28;20372;-77
2021/01/30 03:17:20;;;;;;;;;;;;;;;-0.73;100.00;97593.25;4957736;28;19933;-77
2021/01/30 03:19:45;;;;;;;;;;;;;;;-0.48;100.00;97583.72;4957283;28;19922;-79
2021/01/30 03:22:12;;;;;;;;;;;;;;;-0.40;100.00;97581.13;4941246;28;19930;-78
2021/01/30 03:24:45;;;;;;;;;;;;;;;-0.57;100.00;97594.81;4940598;28;19938;-77
2021/01/30 03:27:30;;;;;;;;;;;;;;;-0.80;100.00;97594.16;4957448;28;19922;-78
2021/01/30 03:29:56;;;;;;;;;;;;;;;-0.71;100.00;97601.66;4973736;28;19957;-77
2021/01/30 03:32:21;;;;;;;;;;;;;;;-0.89;100.00;97616.16;4957184;28;20007;-78
2021/01/30 03:34:47;;;;;;;;;;;;;;;-0.72;100.00;97620.22;4973906;28;20070;-77
2021/01/30 03:37:13;;;;;;;;;;;;;;;-0.79;100.00;97618.59;4974239;28;19926;-79
2021/01/30 03:39:38;;;;;;;;;;;;;;;-0.86;100.00;97613.59;4974674;28;20278;-78
2021/01/30 03:42:04;;;;;;;;;;;;;;;-0.74;100.00;97616.88;4972185;28;20381;-79
2021/01/30 03:44:29;;;;;;;;;;;;;;;-0.83;100.00;97617.78;4972569;28;19941;-77
2021/01/30 03:46:55;;;;;;;;;;;;;;;-0.70;100.00;97626.09;4940408;28;19970;-77
2021/01/30 03:49:20;;;;;;;;;;;;;;;-0.61;100.00;97613.38;4964385;28;19976;-77
2021/01/30 03:51:45;;;;;;;;;;;;;;;-0.60;100.00;97619.25;4956433;28;19940;-77
2021/01/30 03:54:12;;;;;;;;;;;;;;;-0.68;100.00;97626.94;4973025;28;19968;-77
2021/01/30 03:56:37;;;;;;;;;;;;;;;-0.42;100.00;97632.56;4973154;28;20063;-78
2021/01/30 03:59:03;;;;;;;;;;;;;;;-0.25;100.00;97626.47;4974896;28;19918;-76
2021/01/30 04:01:32;;;;;;;;;;;;;;;-0.49;100.00;97633.47;4973268;28;20396;-77
2021/01/30 04:03:57;;;;;;;;;;;;;;;-0.49;100.00;97642.75;4957809;28;19965;-76
2021/01/30 04:06:23;;;;;;;;;;;;;;;-0.67;100.00;97643.75;4972429;28;20419;-77
2021/01/30 04:08:48;;;;;;;;;;;;;;;-0.58;100.00;97643.69;4973724;28;19976;-78
2021/01/30 04:11:13;;;;;;;;;;;;;;;-0.65;100.00;97637.84;4955626;28;20297;-77
2021/01/30 04:13:38;;;;;;;;;;;;;;;-0.84;100.00;97656.56;4954783;28;19928;-77
2021/01/30 04:16:04;;;;;;;;;;;;;;;-0.88;100.00;97653.22;4963698;28;20329;-77
2021/01/30 04:18:29;;;;;;;;;;;;;;;-0.93;100.00;97652.41;4973344;28;19937;-76
2021/01/30 04:20:55;;;;;;;;;;;;;;;-0.54;100.00;97645.31;4937761;28;20306;-77
2021/01/30 04:23:20;;;;;;;;;;;;;;;-0.53;100.00;97652.06;4972829;28;19929;-77
2021/01/30 04:25:45;;;;;;;;;;;;;;;-0.47;100.00;97651.16;4972283;28;19922;-77
2021/01/30 04:28:11;;;;;;;;;;;;;;;-0.28;100.00;97651.81;4972948;28;19918;-76
2021/01/30 04:30:36;;;;;;;;;;;;;;;-0.29;100.00;97657.75;4953749;28;19996;-77
2021/01/30 04:33:01;;;;;;;;;;;;;;;-0.53;100.00;97667.22;4939721;28;19969;-77
2021/01/30 04:35:28;;;;;;;;;;;;;;;-0.32;100.00;97660.28;4972051;28;19914;-77
2021/01/30 04:37:54;;;;;;;;;;;;;;;-0.28;100.00;97657.69;4956033;28;20393;-78
2021/01/30 04:40:38;;;;;;;;;;;;;;;-0.14;100.00;97666.84;4971890;28;19996;-76
2021/01/30 04:43:04;;;;;;;;;;;;;;;-0.50;100.00;97668.88;4972288;28;19965;-77
2021/01/30 04:45:34;;;;;;;;;;;;;;;-0.70;100.00;97680.03;4973533;28;19921;-76
2021/01/30 04:48:08;;;;;;;;;;;;;;;-0.98;100.00;97666.78;4928422;28;19926;-77
2021/01/30 04:50:36;;;;;;;;;;;;;;;-0.58;100.00;97668.97;4972201;28;20321;-78
2021/01/30 04:53:01;;;;;;;;;;;;;;;-0.36;100.00;97664.53;4971855;28;19946;-78
2021/01/30 04:55:39;;;;;;;;;;;;;;;-0.29;100.00;97660.25;4972584;28;19968;-77
2021/01/30 04:58:18;;;;;;;;;;;;;;;-0.32;100.00;97670.41;4972961;28;19972;-79
2021/01/30 05:00:59;;;;;;;;;;;;;;;0.13;100.00;97663.16;4971841;28;20008;-77
2021/01/30 05:03:27;;;;;;;;;;;;;;;-0.04;100.00;97661.66;4959837;28;19918;-76
2021/01/30 05:05:54;;;;;;;;;;;;;;;-0.56;100.00;97672.31;4962196;28;19918;-77
2021/01/30 05:08:19;;;;;;;;;;;;;;;-0.56;100.00;97682.44;4971814;28;19937;-77
2021/01/30 05:10:45;;;;;;;;;;;;;;;-0.53;100.00;97682.38;4973369;28;19922;-76
2021/01/30 05:13:28;;;;;;;;;;;;;;;-0.47;100.00;97674.75;4971849;28;19977;-77
2021/01/30 05:15:55;;;;;;;;;;;;;;;-0.41;100.00;97676.41;4971521;28;19922;-76
2021/01/30 05:18:23;;;;;;;;;;;;;;;-0.90;100.00;97682.69;4970810;28;20004;-77
2021/01/30 05:20:49;;;;;;;;;;;;;;;-0.65;100.00;97677.47;4971323;28;19926;-77
2021/01/30 05:23:15;;;;;;;;;;;;;;;-0.65;100.00;97682.50;4955446;28;19928;-77
2021/01/30 05:25:40;;;;;;;;;;;;;;;-0.61;100.00;97689.22;4971669;28;20013;-77
2021/01/30 05:28:38;;;;;;;;;;;;;;;-0.43;100.00;97689.06;4955170;28;19922;-78
2021/01/30 05:31:27;;;;;;;;;;;;;;;-0.47;100.00;97687.41;4939210;28;19926;-79
2021/01/30 05:33:58;;;;;;;;;;;;;;;-0.75;100.00;97691.00;4970853;28;19918;-77
2021/01/30 05:36:26;;;;;;;;;;;;;;;-0.60;100.00;97690.88;4973078;28;19926;-77
2021/01/30 05:39:10;;;;;;;;;;;;;;;-0.15;100.00;97688.78;4971347;28;19918;-77
2021/01/30 05:41:42;;;;;;;;;;;;;;;-0.59;100.00;97690.06;4972562;28;20002;-77
2021/01/30 05:44:14;;;;;;;;;;;;;;;-0.31;100.00;97687.25;4954757;28;19985;-77
2021/01/30 05:46:39;;;;;;;;;;;;;;;-0.54;100.00;97697.59;4972165;28;19933;-78
2021/01/30 05:49:06;;;;;;;;;;;;;;;-0.82;100.00;97690.25;4972629;28;19922;-77
2021/01/30 05:51:36;;;;;;;;;;;;;;;-0.98;100.00;97692.03;4970410;28;19918;-78
2021/01/30 05:54:02;;;;;;;;;;;;;;;-1.00;100.00;97686.16;4969490;28;19921;-78
2021/01/30 05:56:31;;;;;;;;;;;;;;;-0.86;100.00;97688.59;4971476;28;19971;-78
2021/01/30 05:58:56;;;;;;;;;;;;;;;-1.06;100.00;97686.19;4945919;28;20301;-79
2021/01/30 06:01:23;;;;;;;;;;;;;;;-0.98;100.00;97683.59;4956489;28;19969;-78
2021/01/30 06:03:57;;;;;;;;;;;;;;;-0.65;100.00;97687.56;4973424;28;20008;-78
2021/01/30 06:06:22;;;;;;;;;;;;;;;-0.71;100.00;97688.47;4973474;28;19941;-78
2021/01/30 06:09:03;;;;;;;;;;;;;;;-0.87;100.00;97686.88;4956814;28;19918;-78
2021/01/30 06:11:28;;;;;;;;;;;;;;;-0.58;100.00;97674.03;4973203;28;19980;-77
2021/01/30 06:14:01;;;;;;;;;;;;;;;-1.41;100.00;97682.22;4955685;28;19989;-78
2021/01/30 06:16:40;;;;;;;;;;;;;;;-0.63;100.00;97678.28;4963510;28;19914;-78
2021/01/30 06:19:09;;;;;;;;;;;;;;;-1.24;100.00;97691.38;4972328;28;19918;-78
2021/01/30 06:21:34;;;;;;;;;;;;;;;-0.74;100.00;97698.59;4972166;28;19914;-78
2021/01/30 06:24:07;;;;;;;;;;;;;;;-0.63;100.00;97701.88;4952658;28;20215;-78
2021/01/30 06:26:40;;;;;;;;;;;;;;;-0.63;100.00;97701.03;4938236;28;19921;-78
2021/01/30 06:29:06;;;;;;;;;;;;;;;-0.82;100.00;97710.47;4960267;28;19926;-78
2021/01/30 06:31:33;;;;;;;;;;;;;;;-0.66;100.00;97704.44;4943897;28;19918;-77
2021/01/30 06:34:14;;;;;;;;;;;;;;;-0.66;100.00;97706.13;4935723;28;19937;-78
2021/01/30 06:36:45;;;;;;;;;;;;;;;-0.92;100.00;97709.66;4965826;28;19970;-78
2021/01/30 06:39:11;;;;;;;;;;;;;;;-1.28;100.00;97711.59;4948106;28;19918;-76
2021/01/30 06:41:37;;;;;;;;;;;;;;;-1.09;100.00;97706.44;4944575;28;20037;-77
2021/01/30 06:44:11;;;;;;;;;;;;;;;-0.91;100.00;97710.53;4960578;28;19929;-79
2021/01/30 06:46:57;;;;;;;;;;;;;;;-1.02;100.00;97710.59;4964920;28;19969;-78
2021/01/30 06:49:22;;;;;;;;;;;;;;;-1.00;100.00;97711.44;4945648;28;19922;-77
2021/01/30 06:51:47;;;;;;;;;;;;;;;-0.83;100.00;97708.78;4972747;28;20130;-78
2021/01/30 06:54:17;;;;;;;;;;;;;;;-0.77;100.00;97713.78;4926358;28;20029;-77
2021/01/30 06:56:43;;;;;;;;;;;;;;;-0.95;100.00;97709.69;4925343;29;19919;-78
2021/01/30 06:59:14;;;;;;;;;;;;;;;-0.96;100.00;97715.59;4927900;28;19926;-78
2021/01/30 07:01:43;;;;;;;;;;;;;;;-0.67;100.00;97717.06;4942642;28;19972;-78
2021/01/30 07:04:14;;;;;;;;;;;;;;;-0.49;100.00;97716.91;4958778;28;20553;-79
2021/01/30 07:06:55;;;;;;;;;;;;;;;-0.58;100.00;97719.53;4968429;28;20005;-78
2021/01/30 07:09:23;;;;;;;;;;;;;;;-0.67;100.00;97729.72;4967636;28;20338;-78
2021/01/30 07:11:54;;;;;;;;;;;;;;;-0.66;100.00;97721.31;4959273;28;19922;-76
2021/01/30 07:14:38;;;;;;;;;;;;;;;-0.49;100.00;97724.50;4970452;28;19922;-78
2021/01/30 07:17:12;;;;;;;;;;;;;;;-1.03;100.00;97731.63;4957655;28;19925;-77
2021/01/30 07:19:57;;;;;;;;;;;;;;;-0.78;100.00;97726.44;4954511;28;19934;-77
2021/01/30 07:22:24;;;;;;;;;;;;;;;-0.77;100.00;97733.19;4966775;28;20487;-77
2021/01/30 07:25:09;;;;;;;;;;;;;;;-1.05;100.00;97738.38;4949704;28;19934;-78
2021/01/30 07:27:35;;;;;;;;;;;;;;;-0.89;100.00;97729.03;4974669;28;19961;-78
2021/01/30 07:30:23;;;;;;;;;;;;;;;-0.47;100.00;97732.09;4975310;28;19929;-78
2021/01/30 07:33:18;;;;;;;;;;;;;;;-0.88;100.00;97739.13;4968668;28;19932;-77
2021/01/30 07:36:10;;;;;;;;;;;;;;;-1.16;100.00;97735.94;4963622;28;19918;-78
2021/01/30 07:38:46;;;;;;;;;;;;;;;-0.98;100.00;97741.72;4974137;28;19929;-78
2021/01/30 07:41:20;;;;;;;;;;;;;;;-0.78;100.00;97746.66;4956621;28;19922;-77
2021/01/30 07:43:54;;;;;;;;;;;;;;;-1.03;100.00;97744.28;4939651;28;19928;-77
2021/01/30 07:46:25;;;;;;;;;;;;;;;-0.97;100.00;97746.78;4955309;28;19921;-78
2021/01/30 07:48:55;;;;;;;;;;;;;;;-0.88;100.00;97751.78;4941589;28;19914;-77
2021/01/30 07:51:53;;;;;;;;;;;;;;;-1.31;100.00;97751.19;4956254;28;19918;-77
2021/01/30 07:54:19;;;;;;;;;;;;;;;-0.78;100.00;97751.69;4930829;28;19953;-77
2021/01/30 07:56:58;;;;;;;;;;;;;;;-1.17;100.00;97753.63;4957152;28;19922;-78
2021/01/30 07:59:33;;;;;;;;;;;;;;;-0.71;100.00;97745.75;4956790;28;20032;-77
2021/01/30 08:02:13;;;;;;;;;;;;;;;-1.23;100.00;97752.00;4974685;28;19933;-77
2021/01/30 08:04:57;;;;;;;;;;;;;;;-0.90;100.00;97750.94;4956786;28;19926;-77
2021/01/30 08:07:31;;;;;;;;;;;;;;;-0.94;100.00;97758.53;4974155;28;19918;-78
2021/01/30 08:10:00;;;;;;;;;;;;;;;-0.95;100.00;97760.25;4974407;28;19972;-78
2021/01/30 08:12:52;;;;;;;;;;;;;;;-0.76;100.00;97744.94;4955676;28;19924;-78
2021/01/30 08:15:30;;;;;;;;;;;;;;;-0.82;100.00;97757.63;4956010;28;19922;-78
2021/01/30 08:18:15;;;;;;;;;;;;;;;-0.54;100.00;97761.66;4955778;28;20304;-78
2021/01/30 08:20:41;;;;;;;;;;;;;;;-1.02;100.00;97753.56;4972725;28;19925;-79
2021/01/30 08:23:06;;;;;;;;;;;;;;;-0.99;100.00;97748.47;4972068;28;19922;-78
2021/01/30 08:25:37;;;;;;;;;;;;;;;-1.12;100.00;97751.91;4974011;28;19928;-79
2021/01/30 08:28:16;;;;;;;;;;;;;;;-1.14;100.00;97733.38;4956432;28;19922;-78
2021/01/30 08:30:41;;;;;;;;;;;;;;;-1.13;100.00;97742.66;4957263;28;19925;-78
2021/01/30 08:33:07;;;;;;;;;;;;;;;-0.86;100.00;97744.19;4956442;28;19919;-79
2021/01/30 08:35:35;;;;;;;;;;;;;;;-0.67;100.00;97742.34;4939133;28;19969;-79
2021/01/30 08:38:16;;;;;;;;;;;;;;;-0.54;100.00;97743.13;4955805;28;19925;-77
2021/01/30 08:40:41;;;;;;;;;;;;;;;-0.59;100.00;97738.09;4953349;28;19968;-78
2021/01/30 08:43:06;;;;;;;;;;;;;;;-0.76;100.00;97740.72;4973108;28;19918;-79
2021/01/30 08:45:33;;;;;;;;;;;;;;;-0.66;100.00;97741.53;4956315;28;19941;-79
2021/01/30 08:48:03;;;;;;;;;;;;;;;-0.72;100.00;97731.44;4955737;28;19976;-77
2021/01/30 08:50:34;;;;;;;;;;;;;;;-0.99;100.00;97723.19;4954517;28;20001;-78
2021/01/30 08:53:11;;;;;;;;;;;;;;;-0.86;100.00;97724.81;4972820;28;19965;-79
2021/01/30 08:55:46;;;;;;;;;;;;;;;-0.70;100.00;97724.69;4974097;28;19914;-78
2021/01/30 08:58:30;;;;;;;;;;;;;;;-0.38;100.00;97733.72;4970121;28;19918;-82
2021/01/30 09:00:56;;;;;;;;;;;;;;;-0.48;100.00;97731.25;4971800;28;19973;-78
2021/01/30 09:03:40;;;;;;;;;;;;;;;-0.45;100.00;97736.28;4936191;28;20016;-78
2021/01/30 09:06:06;;;;;;;;;;;;;;;-0.12;100.00;97730.94;4971006;28;19926;-80
2021/01/30 09:08:41;;;;;;;;;;;;;;;-0.17;100.00;97730.97;4952911;28;19918;-78
2021/01/30 09:11:21;;;;;;;;;;;;;;;-0.47;100.00;97737.97;4939455;28;19914;-78
2021/01/30 09:14:10;;;;;;;;;;;;;;;-0.16;100.00;97747.84;4954065;28;19973;-78
2021/01/30 09:16:46;;;;;;;;;;;;;;;0.03;100.00;97737.53;4962623;28;19957;-79
2021/01/30 09:19:14;;;;;;;;;;;;;;;0.16;100.00;97739.06;4953377;28;19973;-79
2021/01/30 09:21:44;;;;;;;;;;;;;;;-0.05;100.00;97746.03;4953421;28;20515;-80
2021/01/30 09:24:18;;;;;;;;;;;;;;;0.16;100.00;97744.13;4954268;28;19926;-78
2021/01/30 09:26:53;;;;;;;;;;;;;;;0.34;100.00;97743.94;4954655;28;19934;-78
2021/01/30 09:29:39;;;;;;;;;;;;;;;0.49;100.00;97744.63;4954696;28;20389;-79
2021/01/30 09:32:05;;;;;;;;;;;;;;;0.58;100.00;97744.50;4970751;28;19965;-79
2021/01/30 09:34:31;;;;;;;;;;;;;;;0.57;100.00;97736.06;4954691;28;19914;-78
2021/01/30 09:36:56;;;;;;;;;;;;;;;0.55;100.00;97726.81;4954403;28;19917;-78
2021/01/30 09:39:29;;;;;;;;;;;;;;;0.58;100.00;97731.84;4953200;28;19917;-77
2021/01/30 09:42:10;;;;;;;;;;;;;;;0.48;100.00;97730.25;4952530;28;19918;-79
2021/01/30 09:44:35;;;;;;;;;;;;;;;0.26;100.00;97730.53;4951387;28;19922;-80
2021/01/30 09:47:01;;;;;;;;;;;;;;;0.19;100.00;97733.97;4952380;28;19988;-78
2021/01/30 09:49:39;;;;;;;;;;;;;;;0.07;100.00;97734.97;4922103;28;19988;-79
2021/01/30 09:52:05;;;;;;;;;;;;;;;0.70;100.00;97721.53;4952210;28;19957;-79
2021/01/30 09:54:30;;;;;;;;;;;;;;;0.89;100.00;97726.34;4935397;28;19945;-80
2021/01/30 09:56:57;;;;;;;;;;;;;;;0.97;100.00;97724.56;5004364;23;20024;-86
2021/01/30 09:59:25;;;;;;;;;;;;;;;0.93;100.00;97717.84;4977208;28;19925;-86
2021/01/30 10:01:50;;;;;;;;;;;;;;;0.64;100.00;97711.50;4977368;28;19917;-85
2021/01/30 10:04:24;;;;;;;;;;;;;;;0.92;100.00;97716.19;4962741;28;20410;-87
2021/01/30 10:06:51;;;;;;;;;;;;;;;1.07;100.00;97715.94;4961416;28;20405;-86
2021/01/30 10:09:23;;;;;;;;;;;;;;;1.15;100.00;97718.38;4944182;28;20500;-86
2021/01/30 10:11:54;;;;;;;;;;;;;;;0.82;100.00;97721.38;4960086;28;19921;-86
2021/01/30 10:14:20;;;;;;;;;;;;;;;0.81;100.00;97723.94;4959044;28;19948;-86
2021/01/30 10:16:55;;;;;;;;;;;;;;;0.71;100.00;97728.28;4960705;28;19928;-86
2021/01/30 10:19:25;;;;;;;;;;;;;;;1.07;100.00;97717.66;4960871;28;19928;-92
2021/01/30 10:21:51;;;;;;;;;;;;;;;1.23;100.00;97722.50;4965711;28;20174;-91
2021/01/30 10:24:27;;;;;;;;;;;;;;;1.20;100.00;97717.44;4964141;28;20270;-92
2021/01/30 10:26:53;;;;;;;;;;;;;;;0.99;100.00;97712.72;4963192;28;20297;-93
2021/01/30 10:29:20;;;;;;;;;;;;;;;0.83;100.00;97702.78;4962208;28;20159;-91
2021/01/30 10:31:49;;;;;;;;;;;;;;;0.95;100.00;97706.00;4962386;28;19964;-90
2021/01/30 10:34:17;;;;;;;;;;;;;;;0.89;100.00;97706.94;4963180;28;19921;-91
2021/01/30 10:42:32;;;;;;;;;;;;;;;1.01;100.00;97700.84;4996058;23;19979;-81
2021/01/30 10:45:04;;;;;;;;;;;;;;;1.20;100.00;97704.75;4984078;28;19961;-82
2021/01/30 10:47:29;;;;;;;;;;;;;;;0.86;100.00;97701.06;4984584;28;19913;-80
2021/01/30 10:50:10;;;;;;;;;;;;;;;1.12;100.00;97701.53;4985487;28;19921;-81
2021/01/30 10:52:35;;;;;;;;;;;;;;;1.27;100.00;97694.53;4966921;28;19957;-81
2021/01/30 10:55:19;;;;;;;;;;;;;;;1.10;100.00;97695.63;4955151;28;19961;-81
2021/01/30 10:57:48;;;;;;;;;;;;;;;1.20;100.00;97689.56;4969714;28;19917;-81
2021/01/30 11:00:29;;;;;;;;;;;;;;;1.23;100.00;97686.13;4988222;28;19935;-81
2021/01/30 11:02:54;;;;;;;;;;;;;;;1.45;100.00;97676.47;4971344;28;20304;-82
2021/01/30 11:05:19;;;;;;;;;;;;;;;1.38;100.00;97685.06;4970017;28;19917;-82
2021/01/30 11:07:45;;;;;;;;;;;;;;;1.07;100.00;97687.22;4969123;28;20004;-80
2021/01/30 11:10:19;;;;;;;;;;;;;;;1.28;100.00;97693.66;4968564;28;20402;-78
2021/01/30 11:12:45;;;;;;;;;;;;;;;1.03;100.00;97686.47;4986141;28;19918;-82
2021/01/30 11:15:12;;;;;;;;;;;;;;;1.43;100.00;97683.28;4971199;28;19922;-80
2021/01/30 11:17:37;;;;;;;;;;;;;;;1.39;100.00;97691.78;4957698;28;19921;-79
2021/01/30 11:20:05;;;;;;;;;;;;;;;1.70;100.00;97687.03;4975095;28;19925;-81
2021/01/30 11:22:30;;;;;;;;;;;;;;;1.54;100.00;97681.41;4992059;28;19926;-79
2021/01/30 11:25:05;;;;;;;;;;;;;;;1.44;100.00;97685.78;4974590;28;20323;-78
2021/01/30 11:27:30;;;;;;;;;;;;;;;1.91;100.00;97684.97;4992523;28;20050;-81
2021/01/30 11:29:55;;;;;;;;;;;;;;;1.68;100.00;97686.22;4993076;28;19950;-83
2021/01/30 11:32:21;;;;;;;;;;;;;;;1.59;100.00;97676.25;4959176;28;20008;-79
2021/01/30 11:34:47;;;;;;;;;;;;;;;1.89;100.00;97672.31;4958105;28;19941;-82
2021/01/30 11:37:13;;;;;;;;;;;;;;;1.50;100.00;97664.53;4974154;28;20352;-81
2021/01/30 11:39:40;;;;;;;;;;;;;;;1.82;100.00;97673.28;4993680;28;20517;-84
2021/01/30 11:42:06;;;;;;;;;;;;;;;1.73;100.00;97664.13;4962113;28;19930;-82
2021/01/30 11:44:31;;;;;;;;;;;;;;;1.36;100.00;97656.34;4977622;28;19973;-84
2021/01/30 11:46:56;;;;;;;;;;;;;;;1.36;100.00;97666.50;4962557;28;19945;-82
2021/01/30 11:49:22;;;;;;;;;;;;;;;1.12;100.00;97663.50;4961254;28;20400;-81
2021/01/30 11:51:47;;;;;;;;;;;;;;;1.20;100.00;97656.59;4959918;28;19925;-81
2021/01/30 11:54:13;;;;;;;;;;;;;;;1.23;100.00;97656.56;4959483;28;19924;-86
2021/01/30 11:56:39;;;;;;;;;;;;;;;1.41;100.00;97652.84;4959501;28;19921;-80
2021/01/30 11:59:04;;;;;;;;;;;;;;;1.43;100.00;97642.69;4974986;28;19922;-81
2021/01/30 12:01:31;;;;;;;;;;;;;;;1.33;100.00;97646.25;4973706;28;19980;-80
2021/01/30 12:03:57;;;;;;;;;;;;;;;1.29;100.00;97644.63;4974126;28;19918;-82
2021/01/30 12:06:22;;;;;;;;;;;;;;;1.26;100.00;97637.91;4955802;28;20293;-80
2021/01/30 12:08:47;;;;;;;;;;;;;;;1.50;100.00;97643.41;4972915;28;19917;-81
2021/01/30 12:11:13;;;;;;;;;;;;;;;1.13;100.00;97646.56;4972258;28;19924;-80
2021/01/30 12:13:39;;;;;;;;;;;;;;;1.46;100.00;97645.19;4973854;28;19922;-80
2021/01/30 12:16:04;;;;;;;;;;;;;;;1.88;100.00;97640.19;4974329;28;19997;-79
2021/01/30 12:18:30;;;;;;;;;;;;;;;2.06;100.00;97634.75;4972790;28;20016;-80
2021/01/30 12:20:55;;;;;;;;;;;;;;;2.23;100.00;97641.19;4990216;28;19922;-80
2021/01/30 12:23:21;;;;;;;;;;;;;;;1.91;100.00;97632.50;4972557;28;19925;-79
2021/01/30 12:25:47;;;;;;;;;;;;;;;1.94;100.00;97629.06;4955541;28;19924;-79
2021/01/30 12:28:20;;;;;;;;;;;;;;;1.61;100.00;97646.59;4972078;28;20000;-80
2021/01/30 12:30:45;;;;;;;;;;;;;;;1.74;100.00;97637.09;4971749;28;19918;-79
2021/01/30 12:33:11;;;;;;;;;;;;;;;1.25;100.00;97639.63;4972121;28;19972;-80
2021/01/30 12:35:36;;;;;;;;;;;;;;;2.04;100.00;97633.09;4955211;28;19924;-79
2021/01/30 12:38:02;;;;;;;;;;;;;;;2.19;100.00;97634.47;4971603;28;19965;-80
2021/01/30 12:40:29;;;;;;;;;;;;;;;1.61;100.00;97633.91;4955871;28;19976;-80
2021/01/30 12:42:55;;;;;;;;;;;;;;;1.55;100.00;97624.72;4972130;28;19921;-80
2021/01/30 12:45:20;;;;;;;;;;;;;;;1.66;100.00;97622.81;4971312;28;19925;-78
2021/01/30 12:47:46;;;;;;;;;;;;;;;1.22;100.00;97626.13;4971226;28;20536;-78
2021/01/30 12:50:13;;;;;;;;;;;;;;;1.64;100.00;97614.41;4971722;28;19964;-79
2021/01/30 12:52:38;;;;;;;;;;;;;;;2.26;100.00;97615.75;4972097;28;19922;-80
2021/01/30 12:55:04;;;;;;;;;;;;;;;1.79;100.00;97613.28;4973979;28;19972;-80
2021/01/30 12:57:29;;;;;;;;;;;;;;;1.75;100.00;97616.72;4971842;28;19918;-79
2021/01/30 12:59:54;;;;;;;;;;;;;;;1.78;100.00;97618.38;4957855;28;19944;-80